Etusivu
METAR-TAF:

METAR-TAF

Lentoasemat :

Heidrun, Norja

Leveyspiiri: 65-19-30N, Pituuspiiri: 007-19-36E, korkeus merenpinnasta: 0 m

Tämänhetkinen sää

Tämä raportti tehtiin 34 minuuttia sitten, kello 23.50 UTC
Tuuli 7 kn pohjoisesta
Lämpötila 9°C
Kosteus 81%
Ilmanpaine 1014 hPa
Näkyvyys 10 km tai enemmän
Muutamia pilviä 2000 ft:n korkeudessa

METAR: ENHE 282350Z 35007KT 9999 FEW020 09/06 Q1014 W///S3

Aika: 02:24 (00:24 UTC)

Sääennuste

Tämä raportti tehtiin 1 tunti ja 24 minuuttia sitten, kello 23.00 UTC
Ennuste voimassa 29. päivästä klo 00 UTC - 29. päivään klo 09 UTC
Tuuli 8 kn pohjoisesta
Näkyvyys 10 km tai enemmän
Hajonneita pilviä 2000 ft:n korkeudessa
Todennäköisyys 30% :
Ajoittain
29. päivästä klo 00 UTC - 29. päivään klo 09 UTC
Hajonneita pilviä 1200 ft:n korkeudessa
Tulossa
29. päivästä klo 07 UTC - 29. päivään klo 09 UTC
Tuuli 18 kn pohjoisesta/koillisesta

TAF: ENHE 282300Z 2900/2909 36008KT 9999 BKN020 PROB30 TEMPO 2900/2909 BKN012 BECMG 2907/2909 03018KT

Säähavainnot ja -ennusteet yli 4000 lentoasemalta (METAR- ja TAF-raportit).

Käytössä olevat sääasemat on merkitty karttaan keltaisilla ja punaisilla pisteillä.

Aseta hiiri pisteen päälle nähdäksesi sääaseman nimen.

Klikkaa sitten nähdäksesi säähavainnot ja -ennusteet.

Kartan vaihtaminen: klikkaa mustalla rastilla varustettuja vihreitä pisteitä, niin voit zoomata sisään; viivalla varustettua vihreää pistettä, niin voit zoomata ulos tai vihreitä nuolia, niin pääset viereisille kartoille.


METAR-TAF: